Time;durP1;ratioP1;P1;durP2;ratioP2;P2;SDS_P1;SDS_P2;PMS_P1;PMS_P2;Temp;Humidity;BMP_temperature;BMP_pressure;BME280_temperature;BME280_humidity;BME280_pressure;Samples;Min_cycle;Max_cycle;Signal;HPM_P1;HPM_P2
2022/08/13 00:00:59;;;;;;;2.00;1.80;;;13.00;99.90;;;;;;6129592;23;20021;-85
2022/08/13 00:03:30;;;;;;;4.30;2.63;;;13.00;99.90;;;;;;6106127;23;20025;-86
2022/08/13 00:09:22;;;;;;;2.95;2.20;;;12.90;99.90;;;;;;6084852;23;20025;-85
2022/08/13 00:15:07;;;;;;;2.10;1.70;;;12.60;99.90;;;;;;6109233;23;20030;-86
2022/08/13 00:17:42;;;;;;;3.53;2.63;;;12.70;99.90;;;;;;6099702;23;20033;-85
2022/08/13 00:20:35;;;;;;;2.25;2.08;;;12.70;99.90;;;;;;6110912;23;20029;-85
2022/08/13 00:23:06;;;;;;;1.98;1.60;;;12.80;99.90;;;;;;6052508;23;20030;-86
2022/08/13 00:25:56;;;;;;;1.35;1.25;;;12.80;99.90;;;;;;6078476;23;20030;-86
2022/08/13 00:28:28;;;;;;;2.28;1.70;;;12.90;99.90;;;;;;6110609;23;20037;-85
2022/08/13 00:31:06;;;;;;;2.22;2.03;;;12.80;99.90;;;;;;6052976;23;20041;-85
2022/08/13 00:33:37;;;;;;;2.55;1.92;;;12.80;99.90;;;;;;6075455;23;20044;-86
2022/08/13 00:36:17;;;;;;;1.88;1.77;;;12.80;99.90;;;;;;6100441;23;20037;-85
2022/08/13 00:38:56;;;;;;;1.98;1.42;;;12.80;99.90;;;;;;6053416;23;20466;-86
2022/08/13 00:41:40;;;;;;;2.05;1.85;;;12.70;99.90;;;;;;6076456;23;20472;-85
2022/08/13 00:44:28;;;;;;;;;;;12.50;99.90;;;;;;6080041;23;20019;-85
2022/08/13 00:49:48;;;;;;;3.00;2.20;;;12.30;99.90;;;;;;6098457;23;20063;-85
2022/08/13 00:52:40;;;;;;;2.05;1.90;;;12.30;99.90;;;;;;6102395;23;20017;-91
2022/08/13 00:55:16;;;;;;;3.42;2.83;;;12.20;99.90;;;;;;6096040;23;20029;-92
2022/08/13 01:03:45;;;;;;;3.38;2.40;;;12.00;99.90;;;;;;6065437;23;20710;-85
2022/08/13 01:08:05;;;;;;;2.20;2.03;;;12.20;99.90;;;;;;5972070;23;20702;-86
2022/08/13 01:23:04;;;;;;;2.20;2.08;;;12.20;99.90;;;;;;5829595;24;20343;-85
2022/08/13 01:26:32;;;;;;;3.63;2.17;;;12.40;99.90;;;;;;5727650;24;20015;-85
2022/08/13 01:31:04;;;;;;;;;;;;;;;;;;;;;
2022/08/13 01:50:31;;;;;;;3.95;2.15;;;12.00;99.90;;;;;;5062947;28;20055;-82
2022/08/13 01:53:03;;;;;;;3.20;1.95;;;12.00;99.90;;;;;;5092050;28;20040;-81
2022/08/13 01:55:42;;;;;;;2.35;1.75;;;12.00;99.90;;;;;;5110209;28;20047;-82
2022/08/13 01:59:03;;;;;;;3.67;2.72;;;12.10;99.90;;;;;;5081261;28;20045;-82
2022/08/13 02:01:37;;;;;;;2.15;1.98;;;12.20;99.90;;;;;;5070128;28;20047;-82
2022/08/13 02:04:13;;;;;;;1.98;1.70;;;12.00;99.90;;;;;;5087560;28;20044;-82
2022/08/13 02:06:49;;;;;;;1.88;1.73;;;11.90;99.90;;;;;;5086625;28;20087;-82
2022/08/13 02:09:23;;;;;;;;;;;11.80;99.90;;;;;;5087333;28;20086;-82
2022/08/13 02:12:15;;;;;;;2.22;2.03;;;11.70;99.90;;;;;;5087518;28;19920;-82
2022/08/13 02:15:05;;;;;;;4.35;1.35;;;11.70;99.90;;;;;;5086482;28;20052;-82
2022/08/13 02:17:40;;;;;;;3.53;3.25;;;11.40;99.90;;;;;;5122953;28;20521;-82
2022/08/13 02:20:28;;;;;;;1.80;1.70;;;11.30;99.90;;;;;;5128384;28;20049;-82
2022/08/13 02:22:56;;;;;;;2.45;2.25;;;11.30;99.90;;;;;;5119842;28;20046;-82
2022/08/13 02:25:27;;;;;;;3.28;3.00;;;11.40;99.90;;;;;;5118148;27;20054;-83
2022/08/13 02:27:58;;;;;;;1.70;1.60;;;11.40;99.90;;;;;;5129048;28;20039;-82
2022/08/13 02:30:58;;;;;;;3.63;2.05;;;11.20;99.90;;;;;;5111487;28;20058;-82
2022/08/13 02:33:26;;;;;;;2.30;2.10;;;11.00;99.90;;;;;;5128026;28;20043;-82
2022/08/13 02:35:55;;;;;;;2.08;1.88;;;10.90;99.90;;;;;;5129002;28;20394;-82
2022/08/13 02:38:23;;;;;;;3.58;2.28;;;10.90;99.90;;;;;;5129117;27;20039;-82
2022/08/13 02:43:46;;;;;;;2.47;2.28;;;10.80;99.90;;;;;;5124572;27;20051;-82
2022/08/13 02:46:26;;;;;;;2.72;2.05;;;10.80;99.90;;;;;;5137264;27;20051;-82
2022/08/13 02:48:58;;;;;;;2.22;1.90;;;10.80;99.90;;;;;;5124604;27;20039;-82
2022/08/13 02:51:28;;;;;;;3.80;2.60;;;10.90;99.90;;;;;;5116135;28;20051;-82
2022/08/13 02:54:17;;;;;;;2.63;2.42;;;10.90;99.90;;;;;;5115549;28;20410;-83
2022/08/13 02:56:47;;;;;;;2.97;2.78;;;10.60;99.90;;;;;;5097910;27;20047;-82
2022/08/13 02:59:16;;;;;;;2.42;2.22;;;10.30;99.90;;;;;;5094027;28;20052;-82
2022/08/13 03:02:05;;;;;;;2.75;2.50;;;10.20;99.90;;;;;;5110015;28;20066;-83
2022/08/13 03:04:35;;;;;;;2.60;2.40;;;10.10;99.90;;;;;;5094103;28;20047;-82
2022/08/13 03:07:03;;;;;;;3.05;2.85;;;10.20;99.90;;;;;;5095165;28;20063;-82
2022/08/13 03:09:34;;;;;;;3.00;2.83;;;10.30;99.90;;;;;;5094524;28;20044;-82
2022/08/13 03:12:14;;;;;;;3.35;2.85;;;10.40;99.90;;;;;;5095231;28;20059;-82
2022/08/13 03:14:43;;;;;;;2.35;2.25;;;10.50;99.90;;;;;;5112810;28;20044;-82
2022/08/13 03:17:15;;;;;;;3.10;2.80;;;10.60;99.90;;;;;;5113960;28;20043;-82
2022/08/13 03:19:51;;;;;;;4.50;2.67;;;10.50;99.90;;;;;;5115346;28;20047;-82
2022/08/13 03:22:26;;;;;;;2.78;2.47;;;10.50;99.90;;;;;;5113665;28;20039;-81
2022/08/13 03:24:54;;;;;;;2.78;2.55;;;10.50;99.90;;;;;;5114868;28;20402;-82
2022/08/13 03:27:22;;;;;;;2.88;2.47;;;10.50;99.90;;;;;;5097517;28;20051;-82
2022/08/13 03:29:54;;;;;;;2.55;2.35;;;10.60;99.90;;;;;;5109373;28;20033;-82
2022/08/13 03:32:40;;;;;;;2.90;2.60;;;10.70;99.90;;;;;;5094379;28;20059;-82
2022/08/13 03:35:18;;;;;;;2.40;2.20;;;10.40;99.90;;;;;;5094912;28;20044;-82
2022/08/13 03:38:10;;;;;;;2.63;2.42;;;10.20;99.90;;;;;;5062167;28;20043;-82
2022/08/13 03:43:24;;;;;;;3.40;3.10;;;10.00;99.90;;;;;;5094645;28;19935;-82
2022/08/13 03:45:54;;;;;;;2.72;2.53;;;10.10;99.90;;;;;;5093155;28;20055;-82
2022/08/13 03:48:26;;;;;;;2.70;2.50;;;10.20;99.90;;;;;;5135494;27;20489;-82
2022/08/13 03:50:55;;;;;;;3.13;2.88;;;10.20;99.90;;;;;;5103895;28;20042;-82
2022/08/13 03:53:23;;;;;;;2.88;2.65;;;10.20;99.90;;;;;;5113265;28;20043;-82
2022/08/13 03:56:12;;;;;;;2.42;2.13;;;10.30;99.90;;;;;;5082142;28;20048;-82
2022/08/13 03:58:51;;;;;;;2.55;2.30;;;10.20;99.90;;;;;;5095232;28;20478;-82
2022/08/13 04:01:19;;;;;;;4.30;3.13;;;10.30;99.90;;;;;;5095827;28;20109;-82
2022/08/13 04:03:51;;;;;;;2.78;2.53;;;10.30;99.90;;;;;;5114658;28;20043;-82
2022/08/13 04:06:22;;;;;;;2.50;2.30;;;10.30;99.90;;;;;;5114158;28;20054;-82
2022/08/13 04:08:54;;;;;;;4.85;3.25;;;10.20;99.90;;;;;;5095055;27;20478;-81
2022/08/13 04:11:22;;;;;;;3.20;2.90;;;10.10;99.90;;;;;;5114399;28;20055;-82
2022/08/13 04:13:57;;;;;;;2.58;2.38;;;10.20;99.90;;;;;;5096798;28;20047;-82
2022/08/13 04:16:45;;;;;;;2.47;2.28;;;10.10;99.90;;;;;;5112664;28;20040;-82
2022/08/13 04:19:14;;;;;;;2.53;2.00;;;10.10;99.90;;;;;;5129795;27;20048;-82
2022/08/13 04:21:46;;;;;;;2.75;2.50;;;10.10;99.90;;;;;;5113424;28;20383;-82
2022/08/13 04:24:18;;;;;;;3.45;3.15;;;10.10;99.90;;;;;;5119517;27;20047;-82
2022/08/13 04:26:48;;;;;;;3.08;2.78;;;10.00;99.90;;;;;;5134303;27;20683;-82
2022/08/13 04:33:26;;;;;;;4.28;3.67;;;10.20;99.90;;;;;;5093115;28;20055;-82
2022/08/13 04:36:13;;;;;;;2.80;2.55;;;10.30;99.90;;;;;;5092405;28;20509;-82
2022/08/13 04:38:42;;;;;;;3.50;3.20;;;10.40;99.90;;;;;;5093627;28;20094;-82
2022/08/13 04:41:10;;;;;;;3.35;2.47;;;10.60;99.90;;;;;;5113483;28;20040;-82
2022/08/13 04:43:42;;;;;;;4.03;3.38;;;10.80;99.90;;;;;;5114022;28;20043;-82
2022/08/13 04:46:10;;;;;;;2.47;2.28;;;10.80;99.90;;;;;;5129127;27;20050;-82
2022/08/13 04:48:38;;;;;;;3.83;3.55;;;10.90;99.90;;;;;;5095106;28;20062;-82
2022/08/13 04:51:14;;;;;;;3.20;2.85;;;11.00;99.90;;;;;;5128991;27;20044;-82
2022/08/13 04:53:42;;;;;;;4.47;3.13;;;11.00;99.90;;;;;;5111623;28;20059;-81
2022/08/13 04:56:18;;;;;;;4.03;3.72;;;11.10;99.90;;;;;;5112653;28;20043;-82
2022/08/13 04:58:49;;;;;;;3.72;2.92;;;11.10;99.90;;;;;;5102990;28;20032;-82
2022/08/13 05:01:18;;;;;;;3.38;3.13;;;11.20;99.90;;;;;;5111335;28;20040;-82
2022/08/13 05:04:06;;;;;;;5.15;3.88;;;11.20;99.90;;;;;;5112310;28;20044;-81
2022/08/13 05:06:51;;;;;;;4.55;3.08;;;11.30;99.90;;;;;;5111669;28;20047;-81
2022/08/13 05:09:20;;;;;;;2.72;2.53;;;11.30;99.90;;;;;;5111055;28;20039;-81
2022/08/13 05:11:57;;;;;;;3.70;2.85;;;11.40;99.90;;;;;;5113352;28;20039;-82
2022/08/13 05:14:35;;;;;;;4.15;3.10;;;11.50;99.90;;;;;;5112819;28;20046;-82
2022/08/13 05:17:04;;;;;;;2.97;2.65;;;11.60;99.90;;;;;;5075317;28;20056;-82
2022/08/13 05:19:32;;;;;;;3.42;3.22;;;11.80;99.90;;;;;;5092931;28;20052;-82
2022/08/13 05:22:07;;;;;;;3.22;2.97;;;12.00;99.90;;;;;;5094216;28;20035;-82
2022/08/13 05:24:52;;;;;;;3.10;2.80;;;12.10;99.90;;;;;;5077066;28;20391;-82
2022/08/13 05:27:42;;;;;;;5.05;2.72;;;12.10;99.90;;;;;;5091770;28;20122;-82
2022/08/13 05:30:18;;;;;;;;;;;12.30;99.90;;;;;;5091509;28;20043;-82
2022/08/13 05:32:58;;;;;;;3.25;2.95;;;12.50;99.90;;;;;;5098741;28;19926;-82
2022/08/13 05:35:27;;;;;;;3.83;3.10;;;12.70;99.90;;;;;;5113059;28;20052;-82
2022/08/13 05:38:23;;;;;;;2.95;2.65;;;12.90;99.90;;;;;;5096842;28;20046;-82
2022/08/13 05:41:01;;;;;;;8.52;3.28;;;13.30;99.90;;;;;;5112673;28;20047;-82
2022/08/13 05:43:33;;;;;;;2.88;2.63;;;13.60;99.90;;;;;;5113203;28;20498;-82
2022/08/13 05:46:04;;;;;;;3.47;3.17;;;13.80;99.90;;;;;;5112341;28;20039;-82
2022/08/13 05:48:37;;;;;;;2.97;2.78;;;14.10;99.90;;;;;;5112347;28;20047;-82
2022/08/13 05:51:08;;;;;;;;;;;14.30;99.90;;;;;;5111375;28;20051;-82
2022/08/13 05:53:37;;;;;;;3.80;3.47;;;14.40;99.90;;;;;;5094411;28;19927;-82
2022/08/13 05:56:09;;;;;;;3.00;2.78;;;14.30;99.90;;;;;;5111666;28;20047;-82
2022/08/13 05:58:45;;;;;;;3.00;2.80;;;14.20;99.90;;;;;;5111271;28;20048;-82
2022/08/13 06:04:09;;;;;;;2.80;2.60;;;13.90;99.90;;;;;;5111845;28;20048;-82
2022/08/13 06:06:57;;;;;;;3.05;2.67;;;13.70;99.90;;;;;;5110761;28;20043;-87
2022/08/13 06:09:25;;;;;;;3.78;3.58;;;13.80;99.90;;;;;;5094017;28;20075;-87
2022/08/13 06:11:59;;;;;;;3.25;2.95;;;13.90;99.90;;;;;;5099129;28;20052;-88
2022/08/13 06:14:36;;;;;;;2.55;2.33;;;14.00;99.90;;;;;;5098999;28;20039;-87
2022/08/13 06:17:06;;;;;;;3.53;3.23;;;14.10;99.90;;;;;;5114945;28;20042;-87
2022/08/13 06:19:43;;;;;;;2.90;2.40;;;14.50;99.90;;;;;;5107194;28;20044;-88
2022/08/13 06:22:20;;;;;;;3.25;2.95;;;14.80;99.90;;;;;;5131141;27;20050;-87
2022/08/13 06:24:51;;;;;;;4.13;3.83;;;14.90;99.90;;;;;;5097527;28;20422;-86
2022/08/13 06:27:26;;;;;;;4.93;3.45;;;14.90;99.90;;;;;;5086454;28;20530;-87
2022/08/13 06:30:21;;;;;;;3.88;3.15;;;15.20;99.90;;;;;;5064374;28;20484;-88
2022/08/13 06:33:01;;;;;;;3.50;3.20;;;15.60;99.90;;;;;;5092567;28;20036;-87
2022/08/13 06:36:04;;;;;;;2.58;2.42;;;15.80;99.90;;;;;;5087213;28;21335;-87
2022/08/13 06:38:50;;;;;;;3.67;3.38;;;15.80;99.90;;;;;;5094071;28;20039;-87
2022/08/13 06:41:19;;;;;;;2.90;2.70;;;15.70;99.90;;;;;;5095602;28;20047;-87
2022/08/13 06:43:52;;;;;;;4.32;4.00;;;15.70;99.90;;;;;;5096026;28;20051;-87
2022/08/13 06:46:34;;;;;;;3.50;3.20;;;15.60;99.90;;;;;;5103826;28;20048;-86
2022/08/13 06:49:14;;;;;;;3.78;3.47;;;15.90;99.90;;;;;;5113783;28;20048;-88
2022/08/13 06:51:44;;;;;;;3.35;3.05;;;16.00;99.90;;;;;;5094077;28;20059;-87
2022/08/13 06:54:24;;;;;;;4.85;4.45;;;16.10;99.90;;;;;;5104553;28;20418;-88
2022/08/13 06:57:01;;;;;;;3.88;3.58;;;16.20;99.90;;;;;;5090684;28;20036;-88
2022/08/13 06:59:57;;;;;;;3.13;2.92;;;16.50;99.90;;;;;;5095393;28;20077;-89
2022/08/13 07:02:46;;;;;;;7.10;3.08;;;16.60;99.90;;;;;;5079271;28;20047;-88
2022/08/13 07:05:16;;;;;;;3.80;3.50;;;16.60;99.90;;;;;;5081510;28;20044;-89
2022/08/13 07:07:53;;;;;;;2.65;2.45;;;16.90;99.90;;;;;;5092594;28;20052;-89
2022/08/13 07:10:21;;;;;;;3.30;3.10;;;17.20;99.90;;;;;;5108318;28;20055;-90
2022/08/13 07:12:51;;;;;;;3.75;2.78;;;17.30;99.90;;;;;;5093616;28;20084;-88
2022/08/13 07:15:21;;;;;;;5.97;3.53;;;17.20;99.90;;;;;;5085249;28;20052;-88
2022/08/13 07:18:07;;;;;;;2.83;2.63;;;17.40;99.90;;;;;;5063134;28;20048;-86
2022/08/13 07:20:37;;;;;;;;;;;17.50;99.90;;;;;;5083427;28;20057;-88
2022/08/13 07:23:05;;;;;;;2.17;2.05;;;17.50;99.90;;;;;;5114444;28;19926;-88
2022/08/13 07:25:57;;;;;;;2.00;1.90;;;17.90;99.90;;;;;;5092247;28;20509;-88
2022/08/13 07:28:59;;;;;;;2.47;2.28;;;18.00;99.90;;;;;;5090591;27;20061;-86
2022/08/13 07:31:34;;;;;;;2.17;1.90;;;18.20;99.90;;;;;;5075948;28;20043;-87
2022/08/13 07:34:25;;;;;;;2.35;1.80;;;18.60;99.90;;;;;;5103022;28;20425;-88
2022/08/13 07:36:56;;;;;;;2.65;2.45;;;18.50;99.90;;;;;;5109155;27;20047;-87
2022/08/13 07:39:26;;;;;;;2.17;2.00;;;18.60;99.90;;;;;;5096633;28;20500;-83
2022/08/13 07:41:55;;;;;;;3.47;2.30;;;18.60;99.90;;;;;;5106673;27;20043;-83
2022/08/13 07:44:31;;;;;;;2.88;2.50;;;18.40;99.90;;;;;;5109052;28;20046;-84
2022/08/13 07:47:11;;;;;;;2.45;1.85;;;18.50;99.90;;;;;;5112331;28;20048;-82
2022/08/13 07:49:53;;;;;;;1.80;1.70;;;18.80;99.90;;;;;;5110185;27;20032;-85
2022/08/13 07:52:26;;;;;;;1.80;1.70;;;19.20;99.90;;;;;;5114395;28;20051;-84
2022/08/13 07:54:55;;;;;;;1.88;1.75;;;19.60;99.90;;;;;;5113169;27;20050;-85
2022/08/13 07:57:25;;;;;;;2.65;2.47;;;19.90;99.90;;;;;;5100960;28;20067;-83
2022/08/13 08:00:13;;;;;;;1.77;1.67;;;20.10;99.90;;;;;;5106552;27;20055;-81
2022/08/13 08:03:00;;;;;;;1.80;1.70;;;20.10;99.90;;;;;;5111227;28;20047;-83
2022/08/13 08:05:36;;;;;;;1.90;1.80;;;19.70;99.90;;;;;;5100917;28;20044;-83
2022/08/13 08:08:13;;;;;;;2.58;2.38;;;19.40;99.90;;;;;;5093221;28;20040;-83
2022/08/13 08:10:54;;;;;;;2.80;1.98;;;19.40;99.90;;;;;;5097693;28;20043;-84
2022/08/13 08:13:26;;;;;;;3.30;2.55;;;19.50;99.90;;;;;;5095458;28;20047;-82
2022/08/13 08:15:56;;;;;;;2.03;1.67;;;19.60;99.90;;;;;;5084584;28;20044;-83
2022/08/13 08:18:33;;;;;;;1.80;1.70;;;19.90;99.90;;;;;;5106402;28;20487;-83
2022/08/13 08:21:25;;;;;;;1.50;1.40;;;20.70;99.90;;;;;;5103057;28;20039;-83
2022/08/13 08:24:15;;;;;;;1.65;1.55;;;20.80;99.90;;;;;;5097515;28;20489;-83
2022/08/13 08:27:00;;;;;;;4.95;1.48;;;20.70;99.90;;;;;;5096186;28;20043;-86
2022/08/13 08:29:33;;;;;;;1.80;1.70;;;20.80;99.90;;;;;;5110062;28;20482;-84
2022/08/13 08:32:21;;;;;;;2.95;1.80;;;21.00;99.90;;;;;;5103801;28;20039;-83
2022/08/13 08:35:01;;;;;;;2.90;2.70;;;21.00;99.90;;;;;;5090769;28;20043;-87
2022/08/13 08:43:27;;;;;;;7.03;1.65;;;21.40;99.90;;;;;;5132053;27;20050;-82
2022/08/13 08:46:03;;;;;;;1.50;1.40;;;21.50;99.30;;;;;;5107512;28;20063;-78
2022/08/13 08:48:41;;;;;;;2.13;1.73;;;21.40;98.50;;;;;;5111536;28;20484;-80
2022/08/13 08:51:18;;;;;;;1.98;1.55;;;21.30;98.70;;;;;;5105856;28;20048;-79
2022/08/13 08:53:49;;;;;;;1.60;1.50;;;21.10;98.40;;;;;;5091163;28;20048;-78
2022/08/13 08:56:37;;;;;;;2.17;1.92;;;21.10;98.80;;;;;;5098310;28;20473;-78
2022/08/13 08:59:25;;;;;;;1.73;1.58;;;21.20;99.90;;;;;;5110652;28;20561;-80
2022/08/13 09:01:56;;;;;;;2.22;1.95;;;21.40;99.80;;;;;;5093537;28;20042;-79
2022/08/13 09:04:29;;;;;;;1.67;1.58;;;21.50;99.20;;;;;;5093743;28;20055;-78
2022/08/13 09:07:17;;;;;;;2.95;2.40;;;21.70;99.90;;;;;;5109242;28;20046;-78
2022/08/13 09:09:56;;;;;;;1.70;1.60;;;22.00;98.50;;;;;;5111085;28;20063;-79
2022/08/13 09:12:26;;;;;;;2.15;1.90;;;22.00;98.70;;;;;;5112016;28;20058;-79
2022/08/13 09:14:57;;;;;;;2.38;1.48;;;22.00;98.30;;;;;;5096960;28;20505;-80
2022/08/13 09:17:28;;;;;;;6.35;1.83;;;21.90;98.80;;;;;;5089439;28;20071;-79
2022/08/13 09:20:16;;;;;;;2.47;2.28;;;21.90;96.80;;;;;;5091246;28;20059;-80
2022/08/13 09:22:47;;;;;;;3.22;2.08;;;22.00;98.60;;;;;;5089336;28;20044;-79
2022/08/13 09:25:26;;;;;;;2.17;1.98;;;22.20;98.10;;;;;;5099298;28;20046;-80
2022/08/13 09:27:56;;;;;;;2.47;1.90;;;21.90;98.00;;;;;;5108545;28;20051;-79
2022/08/13 09:30:45;;;;;;;2.20;1.90;;;21.60;98.90;;;;;;5124914;27;20062;-81
2022/08/13 09:33:21;;;;;;;2.10;1.90;;;21.50;99.10;;;;;;5111132;28;20275;-79
2022/08/13 09:36:10;;;;;;;3.92;2.17;;;21.70;99.60;;;;;;5111211;28;20070;-79
2022/08/13 09:38:44;;;;;;;1.92;1.83;;;22.10;99.90;;;;;;5108699;28;20063;-76
2022/08/13 09:41:33;;;;;;;2.17;2.00;;;22.30;99.80;;;;;;5109071;28;20498;-79
2022/08/13 09:44:08;;;;;;;2.78;2.58;;;22.50;99.90;;;;;;5111392;28;20536;-84
2022/08/13 09:46:45;;;;;;;2.55;1.90;;;22.60;99.80;;;;;;5078222;28;20133;-83
2022/08/13 09:49:23;;;;;;;2.70;2.50;;;22.60;99.60;;;;;;5094948;28;20402;-81
2022/08/13 09:52:11;;;;;;;6.35;2.70;;;22.80;99.90;;;;;;5080896;28;20058;-81
2022/08/13 09:54:52;;;;;;;4.15;2.83;;;22.90;99.90;;;;;;5110948;28;20055;-83
2022/08/13 09:57:46;;;;;;;2.00;1.90;;;23.10;99.60;;;;;;5082320;28;20398;-81
2022/08/13 10:00:33;;;;;;;2.53;1.98;;;23.10;99.50;;;;;;5084394;28;20051;-82
2022/08/13 10:03:06;;;;;;;2.88;2.67;;;22.90;99.60;;;;;;5098001;28;20051;-86
2022/08/13 10:05:37;;;;;;;2.60;2.03;;;23.10;98.00;;;;;;5115389;28;20048;-82
2022/08/13 10:08:20;;;;;;;3.03;2.72;;;23.00;98.50;;;;;;5116174;28;20051;-81
2022/08/13 10:10:57;;;;;;;2.35;2.15;;;22.90;98.40;;;;;;5078088;28;20036;-81
2022/08/13 10:13:28;;;;;;;2.97;2.35;;;22.80;98.50;;;;;;5094028;28;20414;-82
2022/08/13 10:16:16;;;;;;;;;;;22.80;98.80;;;;;;5081377;28;20406;-82
2022/08/13 10:18:46;;;;;;;4.40;2.92;;;22.80;98.50;;;;;;5077022;28;19920;-84
2022/08/13 10:21:16;;;;;;;2.22;1.98;;;22.80;98.40;;;;;;5078317;28;20048;-82
2022/08/13 10:23:48;;;;;;;3.20;2.58;;;22.80;98.30;;;;;;5078682;28;20052;-81
2022/08/13 10:26:18;;;;;;;3.45;2.22;;;23.00;98.70;;;;;;5077928;28;20408;-81
2022/08/13 10:29:50;;;;;;;3.47;2.40;;;23.10;98.10;;;;;;5092077;28;20048;-82
2022/08/13 10:32:38;;;;;;;;;;;23.20;98.50;;;;;;5063859;28;20048;-84
2022/08/13 10:35:06;;;;;;;3.30;2.05;;;23.30;97.90;;;;;;5094529;28;19923;-81
2022/08/13 10:37:43;;;;;;;2.90;2.70;;;23.30;96.80;;;;;;5094032;28;20048;-84
2022/08/13 10:40:35;;;;;;;2.42;2.22;;;23.30;95.00;;;;;;5094496;28;20048;-86
2022/08/13 10:43:05;;;;;;;3.72;2.97;;;23.30;96.50;;;;;;5094014;28;20414;-81
2022/08/13 10:45:50;;;;;;;15.90;3.55;;;23.30;97.10;;;;;;5093603;28;20063;-82
2022/08/13 10:48:25;;;;;;;2.53;2.33;;;23.50;96.00;;;;;;5077264;28;20051;-87
2022/08/13 10:50:54;;;;;;;3.63;3.00;;;23.60;95.50;;;;;;5060297;28;20055;-83
2022/08/13 10:56:13;;;;;;;2.25;2.15;;;23.80;96.30;;;;;;5094285;28;20387;-85
2022/08/13 10:58:44;;;;;;;2.13;1.95;;;24.00;96.60;;;;;;5060780;28;20257;-83
2022/08/13 11:01:24;;;;;;;2.83;2.63;;;23.70;95.90;;;;;;5094656;28;20484;-84
2022/08/13 11:04:02;;;;;;;3.30;2.75;;;23.60;95.80;;;;;;5093968;28;20044;-82
2022/08/13 11:06:41;;;;;;;1.92;1.83;;;23.40;96.10;;;;;;5094492;28;20040;-82
2022/08/13 11:09:20;;;;;;;3.03;2.80;;;23.20;96.70;;;;;;5077176;28;20044;-82
2022/08/13 11:12:01;;;;;;;3.40;2.33;;;23.00;96.10;;;;;;5078346;28;20048;-82
2022/08/13 11:14:54;;;;;;;2.85;2.65;;;22.70;95.50;;;;;;5094724;28;20055;-83
2022/08/13 11:17:27;;;;;;;1.75;1.65;;;22.60;96.80;;;;;;5076172;28;20048;-82
2022/08/13 11:20:19;;;;;;;2.30;2.13;;;22.60;97.00;;;;;;5094667;28;20047;-83
2022/08/13 11:22:53;;;;;;;2.63;2.42;;;22.70;96.70;;;;;;5093130;28;20835;-81
2022/08/13 11:25:21;;;;;;;2.60;2.40;;;22.80;97.00;;;;;;5093116;28;20047;-83
2022/08/13 11:28:14;;;;;;;2.90;2.67;;;22.90;97.20;;;;;;5092871;28;20044;-83
2022/08/13 11:30:55;;;;;;;3.22;2.53;;;22.80;96.60;;;;;;5047073;28;20052;-81
2022/08/13 11:33:25;;;;;;;2.97;2.70;;;22.80;97.20;;;;;;5038258;28;20067;-81
2022/08/13 11:36:14;;;;;;;2.95;2.50;;;22.80;97.10;;;;;;5055286;28;20048;-82
2022/08/13 11:38:42;;;;;;;1.95;1.77;;;22.80;97.10;;;;;;5037911;28;20048;-81
2022/08/13 11:41:10;;;;;;;3.72;2.80;;;22.70;96.40;;;;;;5071881;28;20484;-82
2022/08/13 11:43:48;;;;;;;2.97;2.78;;;22.70;96.90;;;;;;5072188;28;20052;-86
2022/08/13 11:46:25;;;;;;;2.97;2.60;;;22.70;95.50;;;;;;5038024;28;20047;-82
2022/08/13 11:48:58;;;;;;;2.50;2.40;;;22.60;95.90;;;;;;5070988;28;20055;-84
2022/08/13 11:51:47;;;;;;;5.43;2.28;;;22.80;96.20;;;;;;5042374;28;20044;-79
2022/08/13 11:54:23;;;;;;;2.53;2.17;;;23.10;96.10;;;;;;5069217;28;20045;-79
2022/08/13 11:57:04;;;;;;;5.10;2.97;;;23.30;94.60;;;;;;5091078;28;20036;-79
2022/08/13 11:59:41;;;;;;;4.95;1.90;;;23.30;94.90;;;;;;5092025;28;20063;-80
2022/08/13 12:02:17;;;;;;;2.50;2.30;;;23.30;94.50;;;;;;5092147;28;20047;-79
2022/08/13 12:04:53;;;;;;;1.92;1.83;;;23.30;95.40;;;;;;5091049;28;20044;-79
2022/08/13 12:07:24;;;;;;;2.60;2.40;;;23.40;93.10;;;;;;5091965;28;20048;-81
2022/08/13 12:09:54;;;;;;;2.22;2.03;;;23.60;94.20;;;;;;5074015;28;20513;-79
2022/08/13 12:12:26;;;;;;;2.40;2.05;;;23.50;95.00;;;;;;5091201;28;20650;-79
2022/08/13 12:14:59;;;;;;;8.30;2.75;;;23.40;94.90;;;;;;5090078;28;20044;-78
2022/08/13 12:17:30;;;;;;;2.35;2.15;;;23.30;96.20;;;;;;5099046;28;20062;-78
2022/08/13 12:20:21;;;;;;;;;;;23.30;94.70;;;;;;5092476;28;20047;-79
2022/08/13 12:22:59;;;;;;;3.83;2.58;;;23.40;94.90;;;;;;5089424;28;20408;-80
2022/08/13 12:25:30;;;;;;;2.70;2.13;;;23.40;94.80;;;;;;5089426;28;20074;-79
2022/08/13 12:28:26;;;;;;;2.10;2.00;;;23.50;92.30;;;;;;5091488;28;20044;-80
2022/08/13 12:31:04;;;;;;;2.85;1.80;;;23.50;93.50;;;;;;5073349;28;20517;-79
2022/08/13 12:33:35;;;;;;;2.70;2.50;;;23.30;93.40;;;;;;5090094;28;20055;-79
2022/08/13 12:36:08;;;;;;;1.90;1.80;;;23.50;94.10;;;;;;5090436;28;20060;-80
2022/08/13 12:38:39;;;;;;;2.45;2.25;;;23.80;91.80;;;;;;5090403;28;20040;-80
2022/08/13 12:41:07;;;;;;;2.15;1.33;;;23.90;90.80;;;;;;5091312;28;20036;-78
2022/08/13 12:43:47;;;;;;;1.77;1.65;;;23.80;91.90;;;;;;5074678;28;20051;-79
2022/08/13 12:46:35;;;;;;;2.22;2.03;;;24.10;91.10;;;;;;5073028;28;20755;-80
2022/08/13 12:49:04;;;;;;;2.03;1.83;;;24.40;88.40;;;;;;5091003;28;20040;-79
2022/08/13 12:51:42;;;;;;;1.80;1.70;;;24.60;91.90;;;;;;5090961;28;20048;-79
2022/08/13 12:54:23;;;;;;;2.17;2.08;;;24.70;91.10;;;;;;5110485;27;20075;-79
2022/08/13 12:57:11;;;;;;;2.65;2.30;;;24.80;91.30;;;;;;5075691;28;20509;-79
2022/08/13 12:59:54;;;;;;;2.22;2.05;;;24.90;90.90;;;;;;5090962;28;20654;-79
2022/08/13 13:02:31;;;;;;;2.20;2.00;;;24.70;91.70;;;;;;5090666;28;20044;-79
2022/08/13 13:04:58;;;;;;;1.95;1.85;;;24.30;92.30;;;;;;5090972;28;20047;-79
2022/08/13 13:07:47;;;;;;;7.18;3.28;;;24.10;92.80;;;;;;5090702;28;20524;-79
2022/08/13 13:10:37;;;;;;;2.45;2.25;;;24.00;93.10;;;;;;5090330;28;20044;-79
2022/08/13 13:13:08;;;;;;;2.90;2.03;;;23.90;92.60;;;;;;5090315;28;20041;-78
2022/08/13 13:15:55;;;;;;;2.20;2.10;;;23.70;92.30;;;;;;5091111;28;20474;-79
2022/08/13 13:18:43;;;;;;;23.33;2.47;;;23.70;92.80;;;;;;5089808;28;20052;-79
2022/08/13 13:21:30;;;;;;;2.47;2.28;;;23.90;92.90;;;;;;5090663;28;20406;-79
2022/08/13 13:24:09;;;;;;;2.15;2.05;;;24.10;91.20;;;;;;5090751;28;20126;-79
2022/08/13 13:26:49;;;;;;;2.57;2.37;;;24.10;92.40;;;;;;5091124;28;20391;-79
2022/08/13 13:29:29;;;;;;;2.22;2.10;;;24.30;91.90;;;;;;5109821;28;20070;-78
2022/08/13 13:32:05;;;;;;;2.35;2.17;;;24.40;90.30;;;;;;5109687;28;20044;-78
2022/08/13 13:34:52;;;;;;;5.70;1.75;;;24.20;91.10;;;;;;5110809;28;20047;-79
2022/08/13 13:37:23;;;;;;;1.92;1.80;;;24.10;90.70;;;;;;5108885;28;20047;-79
2022/08/13 13:40:03;;;;;;;2.40;2.25;;;24.10;91.50;;;;;;5110647;28;20046;-79
2022/08/13 13:42:31;;;;;;;4.25;2.22;;;24.30;91.40;;;;;;5109518;28;20047;-79
2022/08/13 13:45:14;;;;;;;2.17;2.03;;;24.40;91.00;;;;;;5094351;28;20130;-79
2022/08/13 13:47:46;;;;;;;3.55;2.47;;;24.40;90.60;;;;;;5110944;28;20048;-79
2022/08/13 13:50:15;;;;;;;2.47;2.28;;;24.50;91.40;;;;;;5126024;27;20044;-79
2022/08/13 13:52:51;;;;;;;2.75;2.55;;;24.40;90.20;;;;;;5110004;28;20048;-79
2022/08/13 13:55:39;;;;;;;1.80;1.70;;;24.40;90.60;;;;;;5123893;28;20047;-79
2022/08/13 13:58:07;;;;;;;3.30;2.45;;;24.60;91.10;;;;;;5108884;28;20044;-79
2022/08/13 14:00:55;;;;;;;1.90;1.80;;;24.90;90.80;;;;;;5110487;28;20512;-79
2022/08/13 14:03:29;;;;;;;2.45;2.25;;;25.00;89.00;;;;;;5110662;28;20052;-79
2022/08/13 14:05:58;;;;;;;2.28;2.00;;;25.20;88.70;;;;;;5110464;28;20398;-79
2022/08/13 14:08:29;;;;;;;2.40;2.30;;;25.30;90.20;;;;;;5109602;28;20624;-79
2022/08/13 14:10:59;;;;;;;2.53;2.05;;;25.40;87.80;;;;;;5089946;28;20048;-79
2022/08/13 14:13:32;;;;;;;2.35;2.15;;;25.40;90.20;;;;;;5090265;28;20048;-80
2022/08/13 14:16:10;;;;;;;2.30;2.13;;;25.60;88.80;;;;;;5090510;28;20048;-79
2022/08/13 14:18:42;;;;;;;1.65;1.52;;;25.60;88.90;;;;;;5088496;28;20040;-79
2022/08/13 14:21:11;;;;;;;1.90;1.80;;;25.40;89.00;;;;;;5088884;28;20403;-80
2022/08/13 14:23:39;;;;;;;1.95;1.75;;;25.20;88.90;;;;;;5089640;28;20417;-80
2022/08/13 14:26:12;;;;;;;2.10;1.60;;;25.10;89.30;;;;;;5090169;28;20040;-79
2022/08/13 14:28:44;;;;;;;2.58;2.08;;;25.10;90.30;;;;;;5088653;28;20294;-79
2022/08/13 14:31:15;;;;;;;1.52;1.42;;;24.90;90.00;;;;;;5090220;28;20386;-79
2022/08/13 14:33:45;;;;;;;2.30;2.10;;;24.70;90.80;;;;;;5088326;28;20052;-79
2022/08/13 14:36:31;;;;;;;2.55;1.95;;;24.50;90.10;;;;;;5090059;28;20320;-79
2022/08/13 14:39:19;;;;;;;2.15;2.05;;;24.30;90.20;;;;;;5086661;28;20383;-79
2022/08/13 14:41:51;;;;;;;2.70;1.75;;;24.10;90.70;;;;;;5091394;28;20048;-79
2022/08/13 14:44:19;;;;;;;2.35;1.90;;;24.00;88.00;;;;;;5099133;28;20055;-80
2022/08/13 14:47:06;;;;;;;2.05;1.95;;;24.00;89.20;;;;;;5113205;28;20043;-79
2022/08/13 14:49:41;;;;;;;2.15;1.95;;;24.30;89.40;;;;;;5113456;28;20050;-79
2022/08/13 14:52:27;;;;;;;2.30;2.10;;;24.60;89.00;;;;;;5113512;28;20048;-79